Time;durP1;ratioP1;P1;durP2;ratioP2;P2;SDS_P1;SDS_P2;PMS_P1;PMS_P2;Temp;Humidity;BMP_temperature;BMP_pressure;BME280_temperature;BME280_humidity;BME280_pressure;Samples;Min_cycle;Max_cycle;Signal;HPM_P1;HPM_P2
2022/06/19 00:01:06;;;;;;;10.38;3.35;;;23.00;99.90;;;;;;5017123;28;20079;-50
2022/06/19 00:03:35;;;;;;;20.08;3.85;;;23.00;99.90;;;;;;5034778;28;20034;-48
2022/06/19 00:06:01;;;;;;;19.40;3.10;;;23.10;99.90;;;;;;5034747;28;20028;-48
2022/06/19 00:08:29;;;;;;;8.82;2.72;;;22.90;99.90;;;;;;5017033;28;20017;-49
2022/06/19 00:10:55;;;;;;;12.45;2.83;;;22.80;99.90;;;;;;5016846;28;20026;-52
2022/06/19 00:13:21;;;;;;;19.88;4.00;;;22.70;99.90;;;;;;5034857;28;20025;-48
2022/06/19 00:15:46;;;;;;;11.45;3.05;;;22.70;99.90;;;;;;5016767;28;20036;-54
2022/06/19 00:18:12;;;;;;;14.50;3.30;;;22.60;99.90;;;;;;5016689;28;20021;-47
2022/06/19 00:20:38;;;;;;;11.32;3.58;;;22.40;99.90;;;;;;5016320;28;20412;-51
2022/06/19 00:23:04;;;;;;;12.55;3.80;;;22.30;99.90;;;;;;5034717;28;20029;-48
2022/06/19 00:25:30;;;;;;;13.52;3.25;;;22.30;99.90;;;;;;5016735;28;20025;-50
2022/06/19 00:27:55;;;;;;;10.85;3.13;;;22.20;99.90;;;;;;5016399;28;20483;-51
2022/06/19 00:30:21;;;;;;;12.05;3.13;;;22.20;99.90;;;;;;5034092;28;20025;-52
2022/06/19 00:32:47;;;;;;;8.80;3.30;;;22.30;99.90;;;;;;5016474;28;20618;-51
2022/06/19 00:35:12;;;;;;;16.73;3.17;;;22.20;99.90;;;;;;5034117;28;20484;-49
2022/06/19 00:37:38;;;;;;;14.10;3.30;;;22.20;99.90;;;;;;5033976;28;20022;-48
2022/06/19 00:40:07;;;;;;;10.90;3.30;;;22.10;99.90;;;;;;5016225;28;20025;-45
2022/06/19 00:42:33;;;;;;;17.30;3.85;;;22.10;99.90;;;;;;5033855;28;20057;-45
2022/06/19 00:44:58;;;;;;;14.93;3.47;;;22.00;99.90;;;;;;5017223;28;20049;-48
2022/06/19 00:47:34;;;;;;;10.75;3.10;;;22.00;99.90;;;;;;5034001;28;20017;-52
2022/06/19 00:50:06;;;;;;;16.00;4.38;;;22.00;99.90;;;;;;5016534;28;20113;-48
2022/06/19 00:52:38;;;;;;;7.05;2.60;;;21.90;99.90;;;;;;5016074;28;20032;-50
2022/06/19 00:55:09;;;;;;;12.35;3.17;;;22.00;99.90;;;;;;5033741;28;20025;-50
2022/06/19 00:57:39;;;;;;;11.50;2.78;;;22.00;99.90;;;;;;5015964;28;20093;-47
2022/06/19 01:00:15;;;;;;;14.27;3.42;;;22.10;99.90;;;;;;5033691;28;20039;-52
2022/06/19 01:02:43;;;;;;;10.25;2.65;;;22.00;99.90;;;;;;5016016;28;20051;-49
2022/06/19 01:05:14;;;;;;;19.35;4.28;;;22.00;99.90;;;;;;5033690;28;20026;-52
2022/06/19 01:07:42;;;;;;;9.98;2.75;;;21.90;99.90;;;;;;5016751;28;20025;-49
2022/06/19 01:10:08;;;;;;;8.30;3.03;;;21.80;99.90;;;;;;5015648;28;20514;-48
2022/06/19 01:12:34;;;;;;;16.00;3.47;;;21.90;99.90;;;;;;5016035;28;20033;-51
2022/06/19 01:15:04;;;;;;;9.13;2.90;;;21.90;99.90;;;;;;5015636;28;20435;-52
2022/06/19 01:17:35;;;;;;;16.95;3.15;;;22.00;99.90;;;;;;5033301;28;20083;-50
2022/06/19 01:20:05;;;;;;;13.77;3.33;;;22.10;99.90;;;;;;5015658;28;20032;-55
2022/06/19 01:23:00;;;;;;;13.48;3.00;;;22.20;99.90;;;;;;5015745;28;20044;-52
2022/06/19 01:25:30;;;;;;;9.18;2.75;;;22.30;99.90;;;;;;5016311;28;20025;-51
2022/06/19 01:30:47;;;;;;;12.27;2.92;;;23.00;99.90;;;;;;5033566;28;20032;-52
2022/06/19 01:33:20;;;;;;;14.57;3.15;;;23.40;99.90;;;;;;5016359;28;20053;-54
2022/06/19 01:35:49;;;;;;;14.95;3.17;;;23.70;99.90;;;;;;5015543;28;20112;-49
2022/06/19 01:38:17;;;;;;;19.45;4.20;;;24.00;99.90;;;;;;5014599;28;20060;-50
2022/06/19 01:40:46;;;;;;;13.98;3.08;;;24.20;99.90;;;;;;5033238;28;20021;-49
2022/06/19 01:43:12;;;;;;;13.18;2.97;;;24.40;99.90;;;;;;5033275;28;20037;-53
2022/06/19 01:45:44;;;;;;;11.57;3.08;;;24.40;99.90;;;;;;5015674;28;20049;-48
2022/06/19 01:48:09;;;;;;;;;;;24.50;99.90;;;;;;5033421;28;20025;-46
2022/06/19 01:50:35;;;;;;;17.08;2.92;;;24.60;99.90;;;;;;5015209;28;19909;-46
2022/06/19 01:53:10;;;;;;;15.15;4.03;;;24.50;99.90;;;;;;5015662;28;20029;-45
2022/06/19 01:55:38;;;;;;;9.70;2.53;;;24.60;99.90;;;;;;5015184;28;20075;-51
2022/06/19 01:58:04;;;;;;;12.65;3.38;;;24.50;99.90;;;;;;5033196;28;20065;-51
2022/06/19 02:00:32;;;;;;;18.38;3.28;;;24.50;99.90;;;;;;5015120;28;20029;-46
2022/06/19 02:03:37;;;;;;;15.80;3.05;;;24.50;99.90;;;;;;5015223;28;20068;-48
2022/06/19 02:06:04;;;;;;;18.80;3.80;;;24.50;99.90;;;;;;5016092;28;20021;-50
2022/06/19 02:08:32;;;;;;;21.17;3.88;;;24.50;99.90;;;;;;5015976;28;20026;-50
2022/06/19 02:10:58;;;;;;;13.90;3.53;;;24.50;99.90;;;;;;5033027;28;20021;-48
2022/06/19 02:13:25;;;;;;;13.55;3.60;;;24.50;99.90;;;;;;5016144;28;20028;-50
2022/06/19 02:15:52;;;;;;;9.50;2.75;;;24.40;99.90;;;;;;5015078;28;20373;-51
2022/06/19 02:18:23;;;;;;;13.43;3.30;;;24.30;99.90;;;;;;5015083;28;20365;-47
2022/06/19 02:20:51;;;;;;;15.20;3.33;;;24.40;99.90;;;;;;5015245;28;20557;-51
2022/06/19 02:23:20;;;;;;;10.77;3.15;;;24.40;99.90;;;;;;5033022;28;20399;-45
2022/06/19 02:25:47;;;;;;;19.55;3.63;;;24.40;99.90;;;;;;5015273;28;20029;-46
2022/06/19 02:28:13;;;;;;;11.63;2.42;;;24.50;99.90;;;;;;5032843;28;20033;-49
2022/06/19 02:30:40;;;;;;;14.63;2.90;;;24.50;99.90;;;;;;5014884;28;20100;-48
2022/06/19 02:33:06;;;;;;;8.63;3.03;;;24.50;99.90;;;;;;5015145;28;20067;-50
2022/06/19 02:35:33;;;;;;;12.98;3.53;;;24.50;99.90;;;;;;5015183;28;20113;-47
2022/06/19 02:37:58;;;;;;;14.27;2.63;;;24.50;99.90;;;;;;5014878;28;20028;-50
2022/06/19 02:40:58;;;;;;;14.85;3.72;;;24.60;99.90;;;;;;5032588;28;20038;-49
2022/06/19 02:43:30;;;;;;;16.08;3.22;;;24.50;99.90;;;;;;5032526;28;20033;-50
2022/06/19 02:45:57;;;;;;;18.70;4.75;;;24.40;99.90;;;;;;5014756;28;20087;-49
2022/06/19 02:48:30;;;;;;;14.80;3.35;;;24.40;99.90;;;;;;5014818;28;20049;-49
2022/06/19 02:50:59;;;;;;;18.65;3.35;;;24.30;99.90;;;;;;5017332;28;20022;-50
2022/06/19 02:53:25;;;;;;;16.15;4.75;;;24.30;99.90;;;;;;5018380;28;20025;-50
2022/06/19 02:55:51;;;;;;;21.75;3.45;;;24.30;99.90;;;;;;5035958;28;20030;-49
2022/06/19 02:58:19;;;;;;;12.27;3.42;;;24.30;99.90;;;;;;5018255;28;20385;-52
2022/06/19 03:00:46;;;;;;;10.73;3.45;;;24.20;99.90;;;;;;5018139;28;20036;-48
2022/06/19 03:03:25;;;;;;;16.65;3.30;;;24.30;99.90;;;;;;5018180;28;20029;-49
2022/06/19 03:05:51;;;;;;;14.85;3.35;;;24.30;99.90;;;;;;5036139;28;20029;-47
2022/06/19 03:08:17;;;;;;;19.40;3.88;;;24.30;99.90;;;;;;5036164;28;20479;-45
2022/06/19 03:10:42;;;;;;;12.45;3.20;;;24.10;99.90;;;;;;5036187;28;20021;-48
2022/06/19 03:13:08;;;;;;;14.15;3.13;;;24.20;99.90;;;;;;5036726;28;20029;-45
2022/06/19 03:15:34;;;;;;;17.27;3.10;;;24.10;99.90;;;;;;5036015;28;20025;-50
2022/06/19 03:17:59;;;;;;;24.17;3.53;;;24.10;99.90;;;;;;5018320;28;20025;-45
2022/06/19 03:20:26;;;;;;;12.85;3.60;;;24.10;99.90;;;;;;5017911;28;20036;-51
2022/06/19 03:22:54;;;;;;;15.20;3.63;;;24.10;99.90;;;;;;5035980;28;20064;-47
2022/06/19 03:25:20;;;;;;;22.85;4.28;;;24.10;99.90;;;;;;5035475;28;20017;-52
2022/06/19 03:27:46;;;;;;;14.95;2.78;;;24.10;99.90;;;;;;5035709;28;20029;-49
2022/06/19 03:30:14;;;;;;;20.42;3.22;;;24.10;99.90;;;;;;5035341;28;20491;-50
2022/06/19 03:32:39;;;;;;;13.25;3.60;;;24.10;99.90;;;;;;5035454;28;20104;-48
2022/06/19 03:35:06;;;;;;;17.45;3.83;;;24.00;99.90;;;;;;5018339;28;20092;-48
2022/06/19 03:37:31;;;;;;;17.17;3.33;;;24.00;99.90;;;;;;5017843;28;20615;-48
2022/06/19 03:39:57;;;;;;;10.27;3.00;;;24.00;99.90;;;;;;5018250;28;20148;-51
2022/06/19 03:42:22;;;;;;;17.98;3.22;;;24.00;99.90;;;;;;5017430;28;20025;-52
2022/06/19 03:44:48;;;;;;;12.80;3.67;;;24.00;99.90;;;;;;5017273;28;20160;-48
2022/06/19 03:47:23;;;;;;;19.45;3.40;;;24.00;99.90;;;;;;5035119;28;20025;-50
2022/06/19 03:49:49;;;;;;;18.20;4.03;;;24.10;99.90;;;;;;5034960;28;20028;-50
2022/06/19 03:52:15;;;;;;;13.85;3.58;;;24.10;99.90;;;;;;5018100;28;20047;-48
2022/06/19 03:54:40;;;;;;;11.52;3.33;;;24.10;99.90;;;;;;5017229;28;20032;-49
2022/06/19 03:57:06;;;;;;;15.93;3.47;;;24.00;99.90;;;;;;5034981;28;20096;-52
2022/06/19 03:59:32;;;;;;;12.70;3.33;;;24.00;99.90;;;;;;5035129;28;20499;-51
2022/06/19 04:01:58;;;;;;;11.77;2.85;;;24.00;99.90;;;;;;5016154;28;20030;-52
2022/06/19 04:04:24;;;;;;;11.55;3.00;;;24.10;99.90;;;;;;5017026;28;20072;-50
2022/06/19 04:06:49;;;;;;;19.35;4.40;;;24.20;99.90;;;;;;5016904;28;20510;-47
2022/06/19 04:09:17;;;;;;;12.82;3.58;;;24.30;99.90;;;;;;5034630;28;20045;-51
2022/06/19 04:11:43;;;;;;;18.48;3.40;;;24.30;99.90;;;;;;5017118;28;20048;-46
2022/06/19 04:14:10;;;;;;;15.25;3.38;;;24.30;99.90;;;;;;5017109;28;20018;-49
2022/06/19 04:16:36;;;;;;;16.25;3.53;;;24.30;99.90;;;;;;5016808;28;20091;-50
2022/06/19 04:19:05;;;;;;;12.70;3.30;;;24.30;99.90;;;;;;5016706;28;20488;-47
2022/06/19 04:21:35;;;;;;;16.08;3.38;;;24.30;99.90;;;;;;5034440;28;20037;-47
2022/06/19 04:24:04;;;;;;;11.02;4.15;;;24.30;99.90;;;;;;5016759;28;20053;-48
2022/06/19 04:26:32;;;;;;;14.40;3.40;;;24.30;99.90;;;;;;5034331;28;20021;-48
2022/06/19 04:28:58;;;;;;;12.35;3.58;;;24.20;99.90;;;;;;5034215;28;20021;-51
2022/06/19 04:31:24;;;;;;;18.52;3.47;;;24.30;99.90;;;;;;5034319;28;20079;-49
2022/06/19 04:33:51;;;;;;;10.32;3.17;;;24.60;99.90;;;;;;5034674;28;20100;-50
2022/06/19 04:36:18;;;;;;;12.50;2.75;;;24.90;99.90;;;;;;5016586;28;20036;-52
2022/06/19 04:38:47;;;;;;;14.57;3.10;;;25.10;99.90;;;;;;5016813;28;20391;-46
2022/06/19 04:41:15;;;;;;;10.25;3.05;;;25.30;99.90;;;;;;5016908;28;20033;-47
2022/06/19 04:43:40;;;;;;;12.77;3.50;;;25.50;99.90;;;;;;5034267;28;20109;-48
2022/06/19 04:46:06;;;;;;;12.30;3.25;;;25.50;99.90;;;;;;5034035;28;20112;-51
2022/06/19 04:48:33;;;;;;;12.73;3.42;;;25.70;99.90;;;;;;5017121;28;20026;-52
2022/06/19 04:50:59;;;;;;;13.20;3.58;;;25.90;99.90;;;;;;5033988;28;20093;-46
2022/06/19 04:53:26;;;;;;;18.00;3.72;;;26.10;99.90;;;;;;5016738;28;20025;-48
2022/06/19 04:55:52;;;;;;;15.25;3.97;;;26.10;99.90;;;;;;5016334;28;20032;-52
2022/06/19 04:58:22;;;;;;;13.98;3.75;;;26.20;99.90;;;;;;5016223;28;20036;-45
2022/06/19 05:00:49;;;;;;;18.80;3.50;;;26.40;99.90;;;;;;5016188;28;20093;-48
2022/06/19 05:03:14;;;;;;;15.93;3.88;;;26.40;99.90;;;;;;5016230;28;20064;-48
2022/06/19 05:05:40;;;;;;;11.65;4.15;;;26.50;99.90;;;;;;5016150;28;20058;-48
2022/06/19 05:08:06;;;;;;;19.08;4.30;;;26.50;99.90;;;;;;5033819;28;20031;-49
2022/06/19 05:10:31;;;;;;;9.05;3.22;;;26.50;99.90;;;;;;5033789;28;20028;-46
2022/06/19 05:12:57;;;;;;;18.50;3.65;;;26.40;99.90;;;;;;5016220;28;20026;-49
2022/06/19 05:15:23;;;;;;;17.55;4.10;;;26.20;99.90;;;;;;5033751;28;20017;-50
2022/06/19 05:17:49;;;;;;;14.98;3.97;;;26.00;99.90;;;;;;5033953;28;20025;-47
2022/06/19 05:20:15;;;;;;;20.25;3.50;;;25.90;99.90;;;;;;5033870;28;20021;-46
2022/06/19 05:22:41;;;;;;;14.25;4.28;;;26.00;99.90;;;;;;5033515;28;20041;-49
2022/06/19 05:25:08;;;;;;;12.60;3.45;;;26.20;99.90;;;;;;5016340;28;20030;-50
2022/06/19 05:27:36;;;;;;;16.13;3.42;;;26.30;99.90;;;;;;5016212;28;20029;-52
2022/06/19 05:30:04;;;;;;;23.42;4.43;;;26.50;99.90;;;;;;5015703;28;20025;-53
2022/06/19 05:32:29;;;;;;;9.88;3.17;;;26.70;99.90;;;;;;5016088;28;20128;-46
2022/06/19 05:34:55;;;;;;;13.65;3.90;;;26.90;99.90;;;;;;5016091;28;20036;-49
2022/06/19 05:37:21;;;;;;;19.20;4.10;;;27.10;99.90;;;;;;5015711;28;20528;-51
2022/06/19 05:39:47;;;;;;;19.88;3.88;;;27.40;99.90;;;;;;5033581;28;20021;-52
2022/06/19 05:42:12;;;;;;;15.57;4.68;;;27.70;99.60;;;;;;5015873;28;20022;-49
2022/06/19 05:44:38;;;;;;;19.58;4.22;;;27.90;98.80;;;;;;5015661;28;20017;-48
2022/06/19 05:47:04;;;;;;;13.20;3.58;;;27.90;98.60;;;;;;5015860;28;20091;-51
2022/06/19 05:49:31;;;;;;;15.02;3.78;;;28.10;99.10;;;;;;5015515;28;20117;-50
2022/06/19 05:51:59;;;;;;;14.73;4.38;;;28.60;98.20;;;;;;5015584;28;20018;-48
2022/06/19 05:54:26;;;;;;;19.55;4.32;;;28.80;97.90;;;;;;5016429;28;20075;-48
2022/06/19 05:56:52;;;;;;;14.55;3.60;;;29.20;97.40;;;;;;5015502;28;20025;-50
2022/06/19 05:59:18;;;;;;;11.43;3.75;;;29.30;96.60;;;;;;5034180;28;20049;-52
2022/06/19 06:01:44;;;;;;;10.88;3.33;;;29.40;96.00;;;;;;5015455;28;20052;-46
2022/06/19 06:04:09;;;;;;;20.92;4.43;;;29.50;96.40;;;;;;5015660;28;20022;-51
2022/06/19 06:06:35;;;;;;;17.50;4.20;;;29.80;96.10;;;;;;5015541;28;20029;-47
2022/06/19 06:09:01;;;;;;;19.42;3.95;;;29.70;95.70;;;;;;5015863;28;20028;-46
2022/06/19 06:11:27;;;;;;;12.75;3.97;;;29.50;95.90;;;;;;5015318;28;20460;-48
2022/06/19 06:13:53;;;;;;;13.57;4.15;;;29.40;96.10;;;;;;5033004;28;20060;-50
2022/06/19 06:16:20;;;;;;;12.93;4.15;;;29.70;95.50;;;;;;5015613;28;20061;-52
2022/06/19 06:18:46;;;;;;;25.88;4.57;;;29.40;96.00;;;;;;5032959;28;20057;-51
2022/06/19 06:21:18;;;;;;;11.38;3.58;;;29.40;96.20;;;;;;5015299;28;20449;-50
2022/06/19 06:23:44;;;;;;;11.57;3.70;;;29.90;96.20;;;;;;5033066;28;20053;-47
2022/06/19 06:26:35;;;;;;;15.57;3.50;;;30.60;95.50;;;;;;5018557;28;20030;-53
2022/06/19 06:29:01;;;;;;;12.50;4.20;;;31.30;94.80;;;;;;5019375;28;20061;-50
2022/06/19 06:31:27;;;;;;;16.27;3.90;;;31.30;93.40;;;;;;5036902;28;20072;-50
2022/06/19 06:33:52;;;;;;;13.02;4.32;;;31.20;93.80;;;;;;5036852;28;20017;-51
2022/06/19 06:36:18;;;;;;;21.35;5.15;;;31.20;93.90;;;;;;5019971;28;20026;-53
2022/06/19 06:38:44;;;;;;;9.57;3.08;;;31.60;93.90;;;;;;5036722;28;20025;-53
2022/06/19 06:41:13;;;;;;;16.08;4.75;;;32.40;93.10;;;;;;5036584;28;20022;-48
2022/06/19 06:43:44;;;;;;;10.45;4.38;;;32.90;91.40;;;;;;5018924;28;20029;-48
2022/06/19 06:46:18;;;;;;;13.05;4.35;;;33.50;91.20;;;;;;5036486;28;20152;-52
2022/06/19 06:48:44;;;;;;;19.67;4.60;;;33.50;90.40;;;;;;5019513;28;20018;-53
2022/06/19 06:51:13;;;;;;;17.92;4.82;;;34.00;89.20;;;;;;5018724;28;20021;-50
2022/06/19 06:53:39;;;;;;;28.60;4.90;;;34.40;87.00;;;;;;5018819;28;20490;-48
2022/06/19 06:56:05;;;;;;;17.67;4.22;;;34.60;86.90;;;;;;5036492;28;20487;-54
2022/06/19 06:58:31;;;;;;;15.40;4.55;;;34.80;85.80;;;;;;5019805;28;20025;-53
2022/06/19 07:00:57;;;;;;;18.35;4.57;;;35.30;84.30;;;;;;5036136;28;20510;-51
2022/06/19 07:03:23;;;;;;;11.82;4.00;;;35.80;82.50;;;;;;5018873;28;20033;-50
2022/06/19 07:05:49;;;;;;;20.20;4.05;;;36.60;82.00;;;;;;5018314;28;20582;-50
2022/06/19 07:08:14;;;;;;;13.65;4.55;;;37.00;80.40;;;;;;5018363;28;20018;-55
2022/06/19 07:10:40;;;;;;;19.73;4.45;;;37.10;77.50;;;;;;5035955;28;20112;-53
2022/06/19 07:13:06;;;;;;;13.48;4.25;;;37.20;78.20;;;;;;5018185;28;20112;-53
2022/06/19 07:15:33;;;;;;;23.05;4.93;;;37.90;76.60;;;;;;5018576;28;20021;-53
2022/06/19 07:17:59;;;;;;;14.80;4.90;;;38.00;76.30;;;;;;5018120;28;20484;-50
2022/06/19 07:20:24;;;;;;;20.65;4.90;;;38.50;72.90;;;;;;5018854;28;20032;-52
2022/06/19 07:22:50;;;;;;;13.38;4.85;;;39.10;72.50;;;;;;5036548;28;20112;-51
2022/06/19 07:25:18;;;;;;;14.18;4.78;;;39.90;73.50;;;;;;5035672;28;20476;-53
2022/06/19 07:27:44;;;;;;;13.30;4.65;;;40.00;70.50;;;;;;5018225;28;20053;-52
2022/06/19 07:30:18;;;;;;;14.43;4.53;;;40.60;69.00;;;;;;5018006;28;20036;-52
2022/06/19 07:32:44;;;;;;;15.93;4.78;;;40.90;66.70;;;;;;5018167;28;20044;-54
2022/06/19 07:35:10;;;;;;;15.77;5.28;;;41.10;64.90;;;;;;5017815;28;20468;-51
2022/06/19 07:37:36;;;;;;;15.15;5.53;;;41.00;65.60;;;;;;5016484;28;20029;-49
2022/06/19 07:40:03;;;;;;;18.15;5.63;;;40.70;64.70;;;;;;5017719;28;20021;-51
2022/06/19 07:42:28;;;;;;;13.35;4.75;;;40.80;64.00;;;;;;5017649;28;20033;-51
2022/06/19 07:44:54;;;;;;;14.23;5.15;;;40.70;64.50;;;;;;5017986;28;20017;-50
2022/06/19 07:50:11;;;;;;;13.77;5.57;;;39.50;64.60;;;;;;5035787;28;20088;-54
2022/06/19 07:52:56;;;;;;;12.85;5.20;;;39.10;65.70;;;;;;5017605;28;20033;-51
2022/06/19 07:55:28;;;;;;;12.85;5.00;;;38.80;65.10;;;;;;5035059;28;20373;-54
2022/06/19 07:57:54;;;;;;;15.90;5.65;;;38.80;65.70;;;;;;5035100;28;20025;-53
2022/06/19 08:00:27;;;;;;;9.40;4.93;;;39.00;66.80;;;;;;5034984;28;20151;-51
2022/06/19 08:02:53;;;;;;;15.40;5.90;;;39.00;65.30;;;;;;5017643;28;20033;-49
2022/06/19 08:05:25;;;;;;;19.30;5.78;;;39.00;66.70;;;;;;5017253;28;20491;-54
2022/06/19 08:07:52;;;;;;;14.30;4.97;;;39.30;65.60;;;;;;5035344;28;20100;-50
2022/06/19 08:10:31;;;;;;;13.05;5.10;;;39.40;65.20;;;;;;5017373;28;20076;-52
2022/06/19 08:12:57;;;;;;;9.65;5.32;;;39.80;65.00;;;;;;5017681;28;20030;-50
2022/06/19 08:15:23;;;;;;;12.52;5.20;;;40.40;65.40;;;;;;5017358;28;20026;-51
2022/06/19 08:17:49;;;;;;;10.02;5.45;;;41.10;63.20;;;;;;5017027;28;20033;-50
2022/06/19 08:20:16;;;;;;;17.55;5.70;;;40.70;62.00;;;;;;5017411;28;20032;-49
2022/06/19 08:22:42;;;;;;;12.60;6.00;;;40.60;62.30;;;;;;5017370;28;20037;-50
2022/06/19 08:25:09;;;;;;;15.70;5.80;;;40.40;62.50;;;;;;5017224;28;20033;-54
2022/06/19 08:27:42;;;;;;;19.23;5.72;;;40.50;62.00;;;;;;5016822;28;20108;-51
2022/06/19 08:30:15;;;;;;;15.00;5.97;;;41.10;61.30;;;;;;5016900;28;20028;-52
2022/06/19 08:32:41;;;;;;;17.83;5.78;;;41.50;60.40;;;;;;5017291;28;20025;-49
2022/06/19 08:35:07;;;;;;;14.40;7.30;;;41.20;62.00;;;;;;5016802;28;20079;-54
2022/06/19 08:37:35;;;;;;;15.23;6.07;;;41.30;60.20;;;;;;5017816;28;20079;-50
2022/06/19 08:40:06;;;;;;;13.88;5.10;;;40.80;60.60;;;;;;5016585;28;20025;-53
2022/06/19 08:42:32;;;;;;;18.45;5.40;;;40.40;60.80;;;;;;5016585;28;20500;-54
2022/06/19 08:45:23;;;;;;;8.85;4.95;;;39.90;61.40;;;;;;5016740;28;20017;-53
2022/06/19 08:47:52;;;;;;;11.93;5.57;;;39.60;62.80;;;;;;5016329;28;20113;-48
2022/06/19 08:50:35;;;;;;;12.73;5.30;;;39.10;62.40;;;;;;5016794;28;20021;-54
2022/06/19 08:53:21;;;;;;;11.25;6.10;;;39.00;62.60;;;;;;5034636;28;20094;-49
2022/06/19 08:56:02;;;;;;;12.32;5.97;;;38.50;63.00;;;;;;5034608;28;20025;-53
2022/06/19 08:59:03;;;;;;;14.95;5.45;;;38.30;63.80;;;;;;5034016;28;20076;-51
2022/06/19 09:08:08;;;;;;;13.60;5.05;;;39.10;62.70;;;;;;5033893;28;20086;-49
2022/06/19 09:10:45;;;;;;;16.00;5.85;;;39.00;62.50;;;;;;5033813;28;20022;-51
2022/06/19 09:13:29;;;;;;;20.35;5.95;;;38.60;62.20;;;;;;5016046;28;20049;-51
2022/06/19 09:16:02;;;;;;;13.07;5.15;;;38.60;62.50;;;;;;5033663;28;20030;-48
2022/06/19 09:18:54;;;;;;;16.17;6.28;;;39.60;61.20;;;;;;5033954;28;20037;-52
2022/06/19 09:21:38;;;;;;;15.50;5.35;;;40.90;59.80;;;;;;5026437;28;20438;-54
2022/06/19 09:24:07;;;;;;;10.52;5.43;;;41.90;59.00;;;;;;5016246;28;20484;-52
2022/06/19 09:26:44;;;;;;;16.25;5.70;;;42.30;58.20;;;;;;5016665;28;20040;-50
2022/06/19 09:29:26;;;;;;;10.65;5.88;;;42.50;58.00;;;;;;5033666;28;20080;-48
2022/06/19 09:31:58;;;;;;;17.10;5.40;;;42.50;58.30;;;;;;5016728;28;20017;-53
2022/06/19 09:34:38;;;;;;;13.68;5.47;;;42.40;56.10;;;;;;5033834;28;20029;-53
2022/06/19 09:37:09;;;;;;;;;;;42.50;56.00;;;;;;5017103;28;20112;-48
2022/06/19 09:39:56;;;;;;;14.35;5.60;;;42.50;55.90;;;;;;5033421;28;19928;-52
2022/06/19 09:42:43;;;;;;;11.82;5.32;;;43.00;56.10;;;;;;5015791;28;20021;-52
2022/06/19 09:45:28;;;;;;;12.13;4.80;;;43.30;55.30;;;;;;5033881;28;20017;-51
2022/06/19 09:48:10;;;;;;;13.50;5.78;;;43.30;55.40;;;;;;5033593;28;20028;-48
2022/06/19 09:50:42;;;;;;;17.80;5.70;;;42.50;55.10;;;;;;5015531;28;20076;-48
2022/06/19 09:53:16;;;;;;;21.17;5.72;;;42.00;55.80;;;;;;5033378;28;20022;-54
2022/06/19 09:55:47;;;;;;;12.80;5.25;;;41.30;56.00;;;;;;5015590;28;20032;-54
2022/06/19 09:58:23;;;;;;;15.45;5.50;;;41.20;56.70;;;;;;5015459;28;20025;-52
2022/06/19 10:00:52;;;;;;;10.13;5.22;;;41.60;56.40;;;;;;5018571;28;20017;-53
2022/06/19 10:03:53;;;;;;;21.17;5.43;;;42.40;55.80;;;;;;5019743;28;20036;-51
2022/06/19 10:06:25;;;;;;;10.57;4.78;;;43.00;54.90;;;;;;5034186;28;20048;-52
2022/06/19 10:09:04;;;;;;;13.70;5.07;;;43.40;54.70;;;;;;5037744;28;20024;-53
2022/06/19 10:11:32;;;;;;;21.80;5.45;;;43.10;54.60;;;;;;5019482;28;20021;-52
2022/06/19 10:14:10;;;;;;;9.98;5.30;;;42.70;55.20;;;;;;5037048;28;20053;-48
2022/06/19 10:17:18;;;;;;;13.27;5.22;;;43.10;55.10;;;;;;5019849;28;20025;-48
2022/06/19 10:19:55;;;;;;;10.13;5.10;;;43.60;54.90;;;;;;4960021;28;20082;-48
2022/06/19 10:22:34;;;;;;;13.10;5.78;;;43.50;54.50;;;;;;5031914;28;20049;-55
2022/06/19 10:25:11;;;;;;;26.88;5.72;;;43.40;54.40;;;;;;5019434;28;20026;-51
2022/06/19 10:27:54;;;;;;;15.05;5.45;;;43.10;55.10;;;;;;5020032;28;20025;-52
2022/06/19 10:31:02;;;;;;;14.32;6.22;;;42.90;55.40;;;;;;5019597;28;20025;-51
2022/06/19 10:33:59;;;;;;;16.88;5.63;;;42.50;55.60;;;;;;4960947;28;20464;-50
2022/06/19 10:36:48;;;;;;;17.52;5.10;;;41.80;55.20;;;;;;5036936;28;20049;-50
2022/06/19 10:39:47;;;;;;;14.75;5.35;;;41.60;55.90;;;;;;5036564;28;20128;-51
2022/06/19 10:42:38;;;;;;;19.67;5.57;;;41.00;56.60;;;;;;5034036;28;20034;-52
2022/06/19 10:45:30;;;;;;;21.70;6.35;;;40.70;56.70;;;;;;5018742;28;20040;-52
2022/06/19 10:47:59;;;;;;;17.20;5.30;;;40.20;57.50;;;;;;5018786;28;20103;-48
2022/06/19 10:50:47;;;;;;;15.30;5.55;;;39.60;58.30;;;;;;5018903;28;20107;-48
2022/06/19 10:53:31;;;;;;;13.98;5.68;;;38.80;59.30;;;;;;5036789;28;20020;-47
2022/06/19 10:56:06;;;;;;;11.88;5.32;;;38.20;60.60;;;;;;5036688;28;20068;-52
2022/06/19 10:58:32;;;;;;;16.10;6.15;;;38.10;61.40;;;;;;5019461;28;20036;-49
2022/06/19 11:01:05;;;;;;;19.02;5.75;;;38.00;61.70;;;;;;5018615;28;20029;-50
2022/06/19 11:04:07;;;;;;;13.05;5.65;;;37.90;61.60;;;;;;5036439;28;20431;-51
2022/06/19 11:06:50;;;;;;;17.20;5.88;;;37.70;62.10;;;;;;5018728;28;20484;-54
2022/06/19 11:09:19;;;;;;;11.52;5.50;;;37.50;61.70;;;;;;5018553;28;20072;-53
2022/06/19 11:11:46;;;;;;;21.35;6.32;;;37.30;62.60;;;;;;5036237;28;20049;-54
2022/06/19 11:14:34;;;;;;;14.38;5.97;;;37.00;62.90;;;;;;5036023;28;20026;-50
2022/06/19 11:17:07;;;;;;;12.80;5.55;;;36.80;64.50;;;;;;5035913;28;20496;-49
2022/06/19 11:19:37;;;;;;;17.33;5.80;;;36.40;64.10;;;;;;5036138;28;20033;-49
2022/06/19 11:22:16;;;;;;;16.85;5.47;;;36.30;65.10;;;;;;5018286;28;20033;-49
2022/06/19 11:24:42;;;;;;;15.88;5.45;;;36.10;64.30;;;;;;5036477;28;20028;-50
2022/06/19 11:27:16;;;;;;;11.93;5.75;;;36.00;64.50;;;;;;5035903;28;20026;-49
2022/06/19 11:29:46;;;;;;;13.80;5.47;;;36.00;64.80;;;;;;5017977;28;20029;-51
2022/06/19 11:32:16;;;;;;;16.10;5.03;;;35.80;64.60;;;;;;5018220;28;20025;-49
2022/06/19 11:34:53;;;;;;;19.65;5.88;;;35.70;65.10;;;;;;5018270;28;20026;-48
2022/06/19 11:37:23;;;;;;;16.10;6.28;;;35.60;64.50;;;;;;5035964;28;20108;-47
2022/06/19 11:39:54;;;;;;;13.00;5.60;;;35.50;65.50;;;;;;5018584;28;20032;-50
2022/06/19 11:42:19;;;;;;;;;;;35.40;65.80;;;;;;5036097;28;20026;-53
2022/06/19 11:44:57;;;;;;;10.93;5.70;;;35.40;65.80;;;;;;5017792;28;19905;-48
2022/06/19 11:47:55;;;;;;;17.35;5.90;;;35.40;66.00;;;;;;5017572;28;20025;-52
2022/06/19 11:50:24;;;;;;;14.18;5.05;;;35.20;66.50;;;;;;5030948;28;20026;-47
2022/06/19 11:52:53;;;;;;;13.05;5.30;;;34.80;67.10;;;;;;5018354;28;20025;-51
2022/06/19 11:55:32;;;;;;;16.33;5.75;;;34.80;67.10;;;;;;5035319;28;20484;-49
2022/06/19 11:58:00;;;;;;;12.52;5.60;;;34.90;67.70;;;;;;5017543;28;20033;-50
2022/06/19 12:00:33;;;;;;;15.68;6.13;;;34.70;67.60;;;;;;5017192;28;20025;-48
2022/06/19 12:03:06;;;;;;;20.65;5.97;;;34.80;67.50;;;;;;5017726;28;20021;-49
2022/06/19 12:05:36;;;;;;;16.38;6.25;;;34.70;68.30;;;;;;5017516;28;20025;-48
2022/06/19 12:08:32;;;;;;;15.10;6.45;;;34.70;67.60;;;;;;5018463;28;20017;-48
2022/06/19 12:11:02;;;;;;;14.27;5.63;;;34.60;68.10;;;;;;5017180;28;20024;-46
2022/06/19 12:13:31;;;;;;;14.45;5.35;;;34.60;68.90;;;;;;5017179;28;20025;-49
2022/06/19 12:16:17;;;;;;;12.45;5.28;;;34.50;68.30;;;;;;5017493;28;20092;-47
2022/06/19 12:18:43;;;;;;;20.30;6.22;;;34.40;67.90;;;;;;5035028;28;20032;-47
2022/06/19 12:21:26;;;;;;;13.50;4.93;;;34.40;68.20;;;;;;5017452;28;20033;-46
2022/06/19 12:24:05;;;;;;;15.32;5.65;;;34.40;67.20;;;;;;5034020;28;20028;-48
2022/06/19 12:26:50;;;;;;;18.67;5.25;;;34.30;67.00;;;;;;5017536;28;20029;-50
2022/06/19 12:29:37;;;;;;;17.83;6.03;;;34.40;68.50;;;;;;5034516;28;20026;-50
2022/06/19 12:32:14;;;;;;;14.82;5.45;;;34.40;68.60;;;;;;5034846;28;20040;-48
2022/06/19 12:34:44;;;;;;;17.80;5.55;;;34.40;68.40;;;;;;5017623;28;20109;-47
2022/06/19 12:37:31;;;;;;;12.70;5.00;;;34.30;68.10;;;;;;5017210;28;20505;-47
2022/06/19 12:39:57;;;;;;;16.55;5.68;;;34.40;67.90;;;;;;5017281;28;20033;-48
2022/06/19 12:42:38;;;;;;;15.38;5.97;;;34.30;67.90;;;;;;5034771;28;20033;-46
2022/06/19 12:45:13;;;;;;;21.90;5.55;;;34.30;68.30;;;;;;5016696;28;20079;-47
2022/06/19 12:48:01;;;;;;;15.43;4.90;;;34.30;67.40;;;;;;5034643;28;20021;-49
2022/06/19 12:51:12;;;;;;;20.48;5.88;;;34.40;68.00;;;;;;5016413;28;20026;-48
2022/06/19 12:53:53;;;;;;;15.00;5.40;;;34.40;69.10;;;;;;5010666;28;20510;-51
2022/06/19 12:56:36;;;;;;;14.23;5.28;;;34.50;69.10;;;;;;5034456;28;20026;-46
2022/06/19 12:59:31;;;;;;;16.85;5.43;;;34.40;68.90;;;;;;5016344;28;20476;-46
2022/06/19 13:02:09;;;;;;;16.67;5.03;;;34.40;69.20;;;;;;5025664;28;20455;-51
2022/06/19 13:04:40;;;;;;;17.80;5.28;;;34.40;68.70;;;;;;5017121;28;20029;-48
2022/06/19 13:07:06;;;;;;;12.48;5.10;;;34.40;68.10;;;;;;5016140;28;20029;-47
2022/06/19 13:09:56;;;;;;;11.82;5.20;;;34.50;69.10;;;;;;5033816;28;20032;-47
2022/06/19 13:12:37;;;;;;;15.73;5.20;;;34.50;69.20;;;;;;5016896;28;20021;-47